Time;durP1;ratioP1;P1;durP2;ratioP2;P2;SDS_P1;SDS_P2;PMS_P1;PMS_P2;Temp;Humidity;BMP_temperature;BMP_pressure;BME280_temperature;BME280_humidity;BME280_pressure;Samples;Min_cycle;Max_cycle;Signal;HPM_P1;HPM_P2
2022/05/05 00:01:42;;;;;;;10.73;5.25;;;;;;;14.48;43.81;101905.81;4936624;28;115557;-76
2022/05/05 00:04:10;;;;;;;13.90;5.22;;;;;;;14.49;43.75;101912.91;4905743;28;114230;-75
2022/05/05 00:06:38;;;;;;;10.60;5.47;;;;;;;14.48;43.92;101905.81;4942933;28;123541;-75
2022/05/05 00:09:05;;;;;;;12.82;5.43;;;;;;;14.48;43.89;101911.16;4919718;28;124842;-76
2022/05/05 00:14:24;;;;;;;13.68;5.50;;;;;;;14.48;44.16;101905.81;4920181;28;114106;-75
2022/05/05 00:16:52;;;;;;;11.77;5.25;;;;;;;14.48;44.13;101911.16;4914296;28;124449;-76
2022/05/05 00:19:20;;;;;;;11.00;5.28;;;;;;;14.49;44.05;101912.91;4925339;28;123559;-76
2022/05/05 00:21:47;;;;;;;11.48;5.53;;;;;;;14.49;44.34;101910.25;4918541;28;114495;-76
2022/05/05 00:24:16;;;;;;;14.27;6.03;;;;;;;14.50;44.29;101917.28;4933467;28;112051;-76
2022/05/05 00:26:43;;;;;;;12.55;6.10;;;;;;;14.50;44.11;101903.97;4925139;28;124480;-76
2022/05/05 00:29:11;;;;;;;14.30;5.60;;;;;;;14.51;43.95;101908.38;4929608;28;124436;-76
2022/05/05 00:31:38;;;;;;;12.98;5.57;;;;;;;14.50;44.19;101906.63;4913117;28;114956;-75
2022/05/05 00:34:06;;;;;;;9.77;5.75;;;;;;;14.50;44.31;101908.44;4912058;28;113961;-76
2022/05/05 00:36:33;;;;;;;9.80;5.78;;;;;;;14.49;44.06;101907.56;4922200;28;126744;-75
2022/05/05 00:39:00;;;;;;;11.88;5.90;;;;;;;14.47;44.22;101904.13;4932384;28;122226;-74
2022/05/05 00:41:32;;;;;;;10.15;5.45;;;;;;;14.45;44.25;101905.09;4910249;28;114088;-75
2022/05/05 00:44:00;;;;;;;11.35;5.80;;;;;;;14.44;44.19;101904.25;4917051;28;114881;-75
2022/05/05 00:46:27;;;;;;;15.60;5.93;;;;;;;14.41;44.18;101904.41;4937133;28;124008;-75
2022/05/05 00:48:55;;;;;;;13.07;5.68;;;;;;;14.39;44.25;101898.25;4917718;28;124639;-75
2022/05/05 00:51:22;;;;;;;11.55;5.78;;;;;;;14.37;44.34;101903.66;4919498;28;114168;-76
2022/05/05 00:53:50;;;;;;;13.25;5.78;;;;;;;14.36;44.41;101901.91;4938205;28;113985;-75
2022/05/05 00:56:18;;;;;;;13.95;6.88;;;;;;;14.35;44.46;101904.63;4928156;28;123434;-75
2022/05/05 00:58:47;;;;;;;15.73;6.22;;;;;;;14.34;44.44;101900.25;4921809;28;123499;-74
2022/05/05 01:01:18;;;;;;;13.45;6.28;;;;;;;14.33;44.72;101895.84;4921757;28;113277;-75
2022/05/05 01:03:46;;;;;;;13.45;6.70;;;;;;;14.32;44.78;101894.13;4935410;28;112819;-75
2022/05/05 01:06:16;;;;;;;17.85;7.22;;;;;;;14.30;44.90;101891.53;4905773;28;124623;-75
2022/05/05 01:08:44;;;;;;;17.33;6.60;;;;;;;14.29;44.95;101899.59;4917832;28;125618;-75
2022/05/05 01:11:11;;;;;;;14.75;6.95;;;;;;;14.28;45.20;101897.84;4926005;28;114560;-75
2022/05/05 01:13:39;;;;;;;14.00;6.70;;;;;;;14.29;45.16;101894.25;4926929;28;114425;-75
2022/05/05 01:16:07;;;;;;;15.45;6.85;;;;;;;14.28;45.21;101898.72;4944986;28;123421;-75
2022/05/05 01:18:35;;;;;;;18.27;7.40;;;;;;;14.28;45.54;101898.72;4939684;28;122881;-75
2022/05/05 01:21:03;;;;;;;16.70;7.40;;;;;;;14.29;45.52;101889.78;4920206;28;114908;-75
2022/05/05 01:23:30;;;;;;;16.23;6.82;;;;;;;14.30;45.63;101896.00;4933302;28;112944;-75
2022/05/05 01:28:44;;;;;;;16.17;6.68;;;;;;;14.27;45.62;101896.13;4920809;28;123059;-76
2022/05/05 01:31:12;;;;;;;18.48;7.57;;;;;;;14.27;45.87;101893.47;4919769;28;114552;-75
2022/05/05 01:33:39;;;;;;;14.70;6.63;;;;;;;14.26;45.82;101899.72;4924277;28;115298;-74
2022/05/05 01:36:07;;;;;;;16.58;7.47;;;;;;;14.24;45.84;101896.25;4929485;28;123791;-75
2022/05/05 01:38:37;;;;;;;17.30;7.43;;;;;;;14.22;45.75;101904.31;4917833;28;123928;-74
2022/05/05 01:41:05;;;;;;;17.20;7.13;;;;;;;14.18;45.81;101908.94;4942742;28;113507;-75
2022/05/05 01:43:34;;;;;;;20.15;7.30;;;;;;;14.15;45.98;101909.03;4918175;28;113523;-75
2022/05/05 01:46:01;;;;;;;17.23;7.22;;;;;;;14.12;45.86;101914.50;4921230;28;123801;-75
2022/05/05 01:48:33;;;;;;;14.60;6.82;;;;;;;14.08;46.02;101912.91;4928031;28;123510;-76
2022/05/05 01:51:01;;;;;;;18.70;7.38;;;;;;;14.06;46.03;101913.91;4912190;28;114498;-76
2022/05/05 01:53:36;;;;;;;15.25;6.55;;;;;;;14.01;46.18;101911.41;4943670;28;112815;-76
2022/05/05 01:56:09;;;;;;;17.03;7.43;;;;;;;13.97;46.22;101912.50;4926958;28;123629;-76
2022/05/05 01:58:38;;;;;;;15.35;6.53;;;;;;;13.95;46.30;101903.69;4923804;28;124277;-76
2022/05/05 02:01:06;;;;;;;15.80;7.45;;;;;;;13.92;46.27;101911.81;4919513;28;114503;-74
2022/05/05 02:03:33;;;;;;;13.82;6.30;;;;;;;13.90;46.66;101911.00;4925063;28;114411;-75
2022/05/05 02:06:00;;;;;;;15.15;6.55;;;;;;;13.89;46.54;101909.28;4920871;28;124324;-75
2022/05/05 02:08:28;;;;;;;17.55;6.40;;;;;;;13.87;46.58;101908.50;4939912;28;123376;-75
2022/05/05 02:10:55;;;;;;;13.88;6.10;;;;;;;13.82;46.53;101912.22;4931508;28;114370;-75
2022/05/05 02:13:22;;;;;;;15.48;6.68;;;;;;;13.78;46.68;101921.25;4925629;28;114059;-76
2022/05/05 02:15:49;;;;;;;15.82;6.68;;;;;;;13.73;46.84;101920.59;4927258;28;123986;-76
2022/05/05 02:18:18;;;;;;;12.27;6.40;;;;;;;13.68;46.67;101914.56;4926482;28;123342;-75
2022/05/05 02:20:45;;;;;;;14.10;6.68;;;;;;;13.63;46.76;101921.88;4929837;28;115336;-75
2022/05/05 02:23:12;;;;;;;14.50;6.88;;;;;;;13.58;46.67;101914.09;4910430;28;114449;-76
2022/05/05 02:25:40;;;;;;;15.20;6.57;;;;;;;13.54;46.62;101916.91;4924204;28;124389;-76
2022/05/05 02:28:07;;;;;;;13.60;6.35;;;;;;;13.51;46.71;101917.06;4930601;28;123376;-74
2022/05/05 02:30:34;;;;;;;14.25;6.38;;;;;;;13.47;46.80;101915.41;4937872;28;114315;-76
2022/05/05 02:33:01;;;;;;;13.95;6.30;;;;;;;13.43;46.83;101920.88;4934642;28;113813;-75
2022/05/05 02:35:29;;;;;;;13.88;6.88;;;;;;;13.38;46.80;101925.50;4926856;28;124285;-76
2022/05/05 02:40:41;;;;;;;;;;;;;;;13.28;46.57;101926.78;4932619;28;113895;-75
2022/05/05 02:43:08;;;;;;;16.00;6.85;;;;;;;13.26;46.50;101923.31;4926328;28;112923;-76
2022/05/05 02:45:36;;;;;;;12.82;6.90;;;;;;;13.23;46.83;101923.44;4923052;28;123453;-76
2022/05/05 02:48:04;;;;;;;19.17;6.97;;;;;;;13.19;47.16;101922.69;4932931;28;123618;-76
2022/05/05 02:50:31;;;;;;;13.65;6.43;;;;;;;13.17;46.65;101929.00;4927005;28;114486;-76
2022/05/05 02:52:58;;;;;;;15.70;6.90;;;;;;;13.13;47.16;101922.91;4918773;28;114338;-76
2022/05/05 02:55:26;;;;;;;18.50;7.13;;;;;;;13.11;47.21;101918.56;4920249;28;123551;-76
2022/05/05 02:57:54;;;;;;;14.02;6.80;;;;;;;13.08;47.09;101924.03;4929197;28;123109;-76
2022/05/05 03:00:21;;;;;;;15.27;7.43;;;;;;;13.07;47.42;101922.28;4933695;28;113013;-76
2022/05/05 03:02:48;;;;;;;13.90;6.97;;;;;;;13.04;47.38;101924.13;4925122;28;113929;-76
2022/05/05 03:05:15;;;;;;;13.98;6.82;;;;;;;13.00;47.42;101917.19;4923645;28;124744;-76
2022/05/05 03:07:42;;;;;;;13.75;7.28;;;;;;;12.99;47.43;101920.75;4917560;28;124135;-76
2022/05/05 03:10:11;;;;;;;16.83;6.65;;;;;;;12.95;47.38;101919.16;4921467;28;115300;-76
2022/05/05 03:12:39;;;;;;;12.77;6.70;;;;;;;12.93;47.53;101915.69;4910655;28;114285;-76
2022/05/05 03:15:07;;;;;;;14.00;6.43;;;;;;;12.90;47.49;101923.78;4919952;28;123892;-76
2022/05/05 03:17:35;;;;;;;16.98;6.88;;;;;;;12.89;47.49;101924.72;4927539;28;124055;-75
2022/05/05 03:20:03;;;;;;;13.25;6.70;;;;;;;12.86;47.58;101930.13;4916679;28;114857;-76
2022/05/05 03:22:30;;;;;;;14.98;6.88;;;;;;;12.83;47.88;101930.28;4930145;28;113681;-76
2022/05/05 03:24:58;;;;;;;13.40;6.57;;;;;;;12.82;47.95;101928.53;4919442;28;123649;-76
2022/05/05 03:27:25;;;;;;;14.45;6.28;;;;;;;12.81;47.87;101937.44;4919022;28;123088;-75
2022/05/05 03:29:52;;;;;;;15.77;7.32;;;;;;;12.79;48.21;101939.25;4936596;28;114076;-76
2022/05/05 03:32:20;;;;;;;17.17;6.95;;;;;;;12.79;48.13;101944.56;4922119;28;114215;-75
2022/05/05 03:34:47;;;;;;;17.90;7.30;;;;;;;12.77;48.35;101946.41;4913664;28;124013;-76
2022/05/05 03:37:14;;;;;;;16.45;7.68;;;;;;;12.75;48.23;101948.28;4926115;28;123218;-76
2022/05/05 03:39:41;;;;;;;14.75;6.78;;;;;;;12.76;48.58;101950.03;4917694;28;114150;-75
2022/05/05 03:42:09;;;;;;;13.80;6.95;;;;;;;12.75;48.83;101948.28;4921529;28;114243;-75
2022/05/05 03:44:37;;;;;;;15.48;7.25;;;;;;;12.77;48.82;101949.06;4926203;28;124327;-76
2022/05/05 03:47:04;;;;;;;13.50;6.97;;;;;;;12.79;48.86;101949.88;4919333;28;124733;-76
2022/05/05 03:49:31;;;;;;;13.73;6.60;;;;;;;12.80;48.85;101947.19;4934184;28;114582;-75
2022/05/05 03:51:58;;;;;;;14.25;6.75;;;;;;;12.83;48.82;101951.53;4935134;28;113749;-76
2022/05/05 03:54:26;;;;;;;17.15;7.72;;;;;;;12.83;48.73;101949.72;4933853;28;123664;-75
2022/05/05 03:56:53;;;;;;;14.88;6.80;;;;;;;12.85;48.96;101949.69;4909205;28;123604;-76
2022/05/05 03:59:22;;;;;;;15.05;6.82;;;;;;;12.87;49.03;101952.28;4932756;28;114887;-76
2022/05/05 04:01:50;;;;;;;17.50;7.07;;;;;;;12.86;49.02;101956.72;4934278;28;114277;-76
2022/05/05 04:04:17;;;;;;;17.20;6.78;;;;;;;12.86;48.95;101956.72;4914066;28;123652;-76
2022/05/05 04:06:44;;;;;;;16.83;7.43;;;;;;;12.86;49.09;101956.72;4917132;28;124565;-76
2022/05/05 04:09:12;;;;;;;14.05;6.93;;;;;;;12.86;49.02;101962.03;4913572;28;113356;-75
2022/05/05 04:11:39;;;;;;;12.82;6.63;;;;;;;12.85;49.05;101960.31;4908134;28;113395;-76
2022/05/05 04:14:06;;;;;;;15.68;6.88;;;;;;;12.83;49.04;101956.84;4925117;28;123596;-76
2022/05/05 04:16:33;;;;;;;17.00;6.78;;;;;;;12.83;49.01;101964.84;4925910;28;124507;-75
2022/05/05 04:19:03;;;;;;;16.73;7.28;;;;;;;12.82;49.24;101965.75;4913239;28;113162;-74
2022/05/05 04:21:31;;;;;;;15.75;7.03;;;;;;;12.81;49.34;101974.66;4910458;28;113874;-76
2022/05/05 04:23:58;;;;;;;19.15;7.10;;;;;;;12.80;49.19;101978.22;4915063;28;124108;-76
2022/05/05 04:26:27;;;;;;;14.85;7.05;;;;;;;12.78;49.19;101974.75;4939851;28;122712;-75
2022/05/05 04:28:56;;;;;;;15.63;6.70;;;;;;;12.77;49.39;101983.63;4907819;28;113271;-76
2022/05/05 04:31:28;;;;;;;16.10;7.40;;;;;;;12.77;49.49;101983.63;4924559;28;113443;-76
2022/05/05 04:33:56;;;;;;;15.95;6.60;;;;;;;12.75;49.51;101980.16;4935323;28;123973;-76
2022/05/05 04:36:23;;;;;;;11.90;6.90;;;;;;;12.74;49.55;101981.09;4923037;28;123796;-76
2022/05/05 04:38:50;;;;;;;14.90;6.72;;;;;;;12.74;49.66;101978.44;4918317;28;114371;-76
2022/05/05 04:41:17;;;;;;;16.65;6.90;;;;;;;12.75;49.54;101985.47;4911657;28;114533;-76
2022/05/05 04:43:44;;;;;;;13.20;6.88;;;;;;;12.74;49.84;101983.75;4915502;28;124005;-76
2022/05/05 04:46:11;;;;;;;15.88;7.45;;;;;;;12.75;49.65;101982.81;4909631;28;123443;-76
2022/05/05 04:48:38;;;;;;;15.23;6.55;;;;;;;12.76;49.64;101992.56;4912537;28;115936;-76
2022/05/05 04:51:06;;;;;;;20.65;7.75;;;;;;;12.76;49.79;101981.91;4912545;28;114819;-76
2022/05/05 04:53:33;;;;;;;13.45;7.05;;;;;;;12.78;49.73;101990.69;4917838;28;123846;-76
2022/05/05 04:56:00;;;;;;;17.10;6.72;;;;;;;12.79;49.83;101992.41;4924940;28;123700;-76
2022/05/05 04:58:27;;;;;;;17.40;6.47;;;;;;;12.79;49.51;101997.75;4923276;28;114674;-75
2022/05/05 05:00:54;;;;;;;15.57;7.05;;;;;;;12.80;49.77;101991.50;4911523;28;113685;-76
2022/05/05 05:03:35;;;;;;;15.45;6.85;;;;;;;12.82;49.58;101992.31;4940809;28;123389;-76
2022/05/05 05:06:04;;;;;;;17.08;7.30;;;;;;;12.82;49.77;101994.97;4909176;28;123990;-76
2022/05/05 05:08:31;;;;;;;14.07;7.07;;;;;;;12.84;49.95;102001.09;4929447;28;113977;-76
2022/05/05 05:10:58;;;;;;;17.42;7.50;;;;;;;12.87;49.85;102001.00;4924537;28;113870;-76
2022/05/05 05:13:26;;;;;;;15.35;7.85;;;;;;;12.91;49.80;102001.78;4923361;28;123804;-76
2022/05/05 05:15:53;;;;;;;16.50;8.00;;;;;;;12.93;49.92;102006.09;4924787;28;124290;-76
2022/05/05 05:18:20;;;;;;;15.95;7.75;;;;;;;12.95;49.81;102004.25;4912162;28;114953;-76
2022/05/05 05:20:48;;;;;;;15.05;8.18;;;;;;;12.96;50.00;102006.00;4915036;28;114305;-76
2022/05/05 05:23:15;;;;;;;16.63;7.47;;;;;;;12.98;50.07;102004.16;4924406;28;124071;-76
2022/05/05 05:25:42;;;;;;;20.92;8.20;;;;;;;13.01;50.17;102006.69;4912758;28;124381;-76
2022/05/05 05:28:11;;;;;;;15.82;7.35;;;;;;;13.04;50.18;102003.91;4924894;28;114487;-76
2022/05/05 05:30:39;;;;;;;20.77;7.85;;;;;;;13.08;50.32;102009.13;4924308;28;114226;-75
2022/05/05 05:33:07;;;;;;;17.35;8.52;;;;;;;13.10;50.45;102013.47;4913535;28;124383;-76
2022/05/05 05:35:35;;;;;;;16.75;7.95;;;;;;;13.14;50.49;102011.56;4911544;28;124556;-75
2022/05/05 05:38:02;;;;;;;16.27;8.50;;;;;;;13.18;50.66;102015.84;4924407;28;115017;-75
2022/05/05 05:40:29;;;;;;;17.27;8.18;;;;;;;13.27;50.68;102025.28;4913600;28;114838;-76
2022/05/05 05:42:57;;;;;;;17.08;7.80;;;;;;;13.32;50.86;102018.88;4924304;28;124829;-75
2022/05/05 05:45:24;;;;;;;17.08;8.07;;;;;;;13.39;50.70;102015.06;4924872;28;124621;-75
2022/05/05 05:47:51;;;;;;;20.58;8.57;;;;;;;13.46;50.89;102017.50;4927594;28;113997;-76
2022/05/05 05:50:18;;;;;;;17.48;8.90;;;;;;;13.53;50.74;102021.66;4943698;28;112932;-75
2022/05/05 05:52:46;;;;;;;18.13;8.77;;;;;;;13.60;50.96;102028.50;4917776;28;124421;-76
2022/05/05 05:55:14;;;;;;;20.90;9.10;;;;;;;13.67;50.95;102019.31;4942657;28;123739;-75
2022/05/05 05:57:41;;;;;;;17.48;8.82;;;;;;;13.72;50.92;102022.69;4930216;28;113706;-75
2022/05/05 06:00:09;;;;;;;21.17;9.07;;;;;;;13.78;50.94;102027.75;4931594;28;113965;-75
2022/05/05 06:05:25;;;;;;;21.95;9.50;;;;;;;13.90;50.94;102030.84;4932348;28;124183;-76
2022/05/05 06:07:58;;;;;;;23.08;10.43;;;;;;;13.95;50.87;102023.56;4947668;28;114408;-75
2022/05/05 06:10:25;;;;;;;21.42;10.40;;;;;;;14.02;50.64;102025.03;4930147;28;114125;-76
2022/05/05 06:12:54;;;;;;;19.30;10.02;;;;;;;14.08;50.82;102030.13;4932639;28;123741;-75
2022/05/05 06:15:22;;;;;;;21.00;10.75;;;;;;;14.15;50.52;102031.59;4914950;28;124635;-75
2022/05/05 06:17:50;;;;;;;23.10;10.20;;;;;;;14.21;50.49;102031.34;4932652;28;114583;-75
2022/05/05 06:20:18;;;;;;;20.45;10.20;;;;;;;14.27;50.30;102034.69;4933062;28;114045;-75
2022/05/05 06:22:46;;;;;;;18.77;9.88;;;;;;;14.31;50.31;102036.28;4933999;28;123800;-76
2022/05/05 06:25:13;;;;;;;18.30;9.90;;;;;;;14.36;50.11;102039.66;4916375;28;123802;-76
2022/05/05 06:27:41;;;;;;;19.25;9.90;;;;;;;14.44;50.39;102037.50;4931125;28;115605;-75
2022/05/05 06:30:16;;;;;;;16.13;8.38;;;;;;;14.53;50.33;102042.47;4931190;28;115014;-75
2022/05/05 06:32:45;;;;;;;17.95;9.13;;;;;;;14.63;50.08;102042.09;4931623;28;123805;-75
2022/05/05 06:35:12;;;;;;;16.63;7.85;;;;;;;14.74;49.91;102042.50;4914977;28;123618;-78
2022/05/05 06:37:39;;;;;;;19.25;8.57;;;;;;;14.84;49.66;102034.97;4928146;28;113706;-75
2022/05/05 06:40:07;;;;;;;15.05;7.88;;;;;;;14.96;49.51;102040.63;4945871;28;114580;-75
2022/05/05 06:42:34;;;;;;;20.38;9.00;;;;;;;15.11;49.42;102044.44;4910023;28;123430;-75
2022/05/05 06:45:03;;;;;;;17.25;7.97;;;;;;;15.28;49.48;102046.34;4918924;28;123685;-75
2022/05/05 06:47:30;;;;;;;19.15;8.60;;;;;;;15.47;49.41;102045.50;4929898;28;114550;-75
2022/05/05 06:49:57;;;;;;;16.67;8.55;;;;;;;15.65;49.36;102049.97;4928291;28;114166;-75
2022/05/05 06:52:26;;;;;;;16.70;7.80;;;;;;;15.84;49.24;102044.66;4914632;28;123853;-75
2022/05/05 06:55:10;;;;;;;14.18;7.82;;;;;;;16.05;49.16;102048.09;4930460;28;123225;-75
2022/05/05 06:57:37;;;;;;;15.75;8.50;;;;;;;16.25;48.93;102043.56;4931737;28;113979;-76
2022/05/05 07:00:05;;;;;;;15.85;7.80;;;;;;;16.45;48.71;102051.44;4928480;28;114153;-76
2022/05/05 07:02:32;;;;;;;20.92;7.30;;;;;;;16.64;48.12;102053.19;4930529;28;124733;-75
2022/05/05 07:07:45;;;;;;;15.50;7.38;;;;;;;17.03;47.81;102057.47;4914514;28;114276;-75
2022/05/05 07:13:04;;;;;;;11.57;6.03;;;;;;;17.46;47.01;102065.84;4914543;28;123594;-75
2022/05/05 07:15:31;;;;;;;12.40;5.72;;;;;;;17.66;46.70;102068.28;4926763;28;123652;-76
2022/05/05 07:17:59;;;;;;;12.07;5.50;;;;;;;17.87;46.03;102065.41;4919468;28;114893;-75
2022/05/05 07:20:26;;;;;;;10.13;5.22;;;;;;;18.05;45.67;102069.72;4931329;28;114553;-75
2022/05/05 07:22:53;;;;;;;12.65;5.32;;;;;;;18.22;45.64;102065.22;4913816;28;124377;-75
2022/05/05 07:25:21;;;;;;;9.65;5.28;;;;;;;18.42;45.10;102072.09;4921318;28;123543;-76
2022/05/05 07:27:48;;;;;;;12.00;5.22;;;;;;;18.57;45.04;102075.69;4906102;28;112624;-76
2022/05/05 07:30:15;;;;;;;12.07;5.72;;;;;;;18.75;45.06;102069.22;4906647;28;113582;-76
2022/05/05 07:32:43;;;;;;;10.45;5.60;;;;;;;18.93;44.05;102082.53;4926317;28;124629;-75
2022/05/05 07:35:11;;;;;;;9.23;5.28;;;;;;;19.04;43.77;102075.56;4925878;28;122937;-77
2022/05/05 07:37:39;;;;;;;11.18;5.80;;;;;;;19.15;43.80;102074.88;4926186;28;113877;-75
2022/05/05 07:40:07;;;;;;;11.60;5.78;;;;;;;19.26;43.26;102080.44;4922349;28;115671;-75
2022/05/05 07:42:37;;;;;;;12.13;6.57;;;;;;;19.37;43.14;102084.31;4945074;28;123689;-74
2022/05/05 07:45:04;;;;;;;16.52;7.00;;;;;;;19.48;42.98;102084.50;4924682;28;124200;-75
2022/05/05 07:47:36;;;;;;;13.25;6.72;;;;;;;19.56;42.81;102079.50;4939188;28;114336;-75
2022/05/05 07:50:05;;;;;;;18.02;7.15;;;;;;;19.61;42.42;102080.06;4920862;28;114012;-75
2022/05/05 07:52:32;;;;;;;13.68;7.18;;;;;;;19.65;42.46;102089.66;4943135;28;123532;-76
2022/05/05 07:54:59;;;;;;;11.65;6.47;;;;;;;19.71;42.43;102090.25;4930328;28;124361;-77
2022/05/05 07:57:26;;;;;;;12.77;6.63;;;;;;;19.77;42.31;102089.88;4913354;28;113551;-76
2022/05/05 07:59:53;;;;;;;13.75;7.18;;;;;;;19.83;42.31;102090.38;4930409;28;113742;-76
2022/05/05 08:02:21;;;;;;;14.40;7.45;;;;;;;19.92;41.72;102088.88;4930519;28;124572;-76
2022/05/05 08:04:48;;;;;;;16.02;6.68;;;;;;;20.00;41.46;102091.06;4930284;28;124743;-75
2022/05/05 08:07:15;;;;;;;11.52;6.93;;;;;;;20.07;41.36;102086.19;4928732;28;115375;-77
2022/05/05 08:09:42;;;;;;;14.15;7.18;;;;;;;20.16;41.10;102090.94;4931439;28;115752;-76
2022/05/05 08:12:27;;;;;;;12.15;6.68;;;;;;;20.25;40.55;102090.34;4931630;28;124196;-77
2022/05/05 08:14:54;;;;;;;14.70;6.70;;;;;;;20.31;40.77;102092.63;4932182;28;124168;-77
2022/05/05 08:17:21;;;;;;;13.75;6.90;;;;;;;20.35;40.63;102096.81;4928660;28;114100;-75
2022/05/05 08:19:48;;;;;;;12.98;7.25;;;;;;;20.39;40.08;102098.34;4925974;28;113987;-74
2022/05/05 08:22:16;;;;;;;15.30;7.70;;;;;;;20.42;39.84;102098.16;4934359;28;124611;-75
2022/05/05 08:30:14;;;;;;;;;;;;;;;20.53;40.32;102099.25;4928648;28;113899;-74
2022/05/05 08:32:41;;;;;;;16.17;7.72;;;;;;;20.62;39.58;102104.03;4906352;28;123724;-74
2022/05/05 08:35:08;;;;;;;13.25;7.18;;;;;;;20.67;40.07;102091.16;4918119;28;123546;-74
2022/05/05 08:37:35;;;;;;;15.18;7.88;;;;;;;20.80;40.13;102102.81;4918438;28;113526;-75
2022/05/05 08:40:04;;;;;;;13.45;7.53;;;;;;;20.99;39.63;102112.31;4933071;28;113534;-75
2022/05/05 08:42:32;;;;;;;13.93;7.45;;;;;;;21.12;39.46;102113.19;4936720;28;122466;-75
2022/05/05 08:44:59;;;;;;;14.77;7.65;;;;;;;21.26;40.06;102111.38;4915749;28;123605;-74
2022/05/05 08:47:28;;;;;;;16.23;8.07;;;;;;;21.46;40.23;102110.00;4933596;28;114318;-74
2022/05/05 08:49:58;;;;;;;14.35;8.23;;;;;;;21.68;39.63;102109.31;4923762;28;113073;-74
2022/05/05 08:52:33;;;;;;;13.90;8.15;;;;;;;21.82;39.17;102109.19;4910594;28;123928;-75
2022/05/05 08:55:01;;;;;;;15.65;7.93;;;;;;;21.96;39.40;102114.44;4913760;28;125187;-75
2022/05/05 08:57:29;;;;;;;18.50;9.00;;;;;;;22.13;39.36;102112.31;4917526;28;115414;-76
2022/05/05 08:59:56;;;;;;;17.15;8.65;;;;;;;22.27;39.33;102112.19;4917261;28;114726;-75
2022/05/05 09:02:24;;;;;;;18.00;8.25;;;;;;;22.43;39.00;102121.84;4929133;28;123579;-75
2022/05/05 09:04:51;;;;;;;14.68;7.95;;;;;;;22.59;38.62;102116.16;4926909;28;123467;-75
2022/05/05 09:07:19;;;;;;;15.75;7.80;;;;;;;22.70;37.84;102118.91;4929097;28;114147;-75
2022/05/05 09:09:50;;;;;;;12.93;7.97;;;;;;;22.69;37.73;102118.03;4911471;28;113712;-75
2022/05/05 09:12:19;;;;;;;12.25;7.35;;;;;;;22.72;38.22;102115.09;4910622;28;124372;-73
2022/05/05 09:14:47;;;;;;;15.07;7.95;;;;;;;22.85;38.07;102116.84;4924517;28;123662;-74
2022/05/05 09:17:14;;;;;;;16.48;8.18;;;;;;;22.96;37.63;102119.56;4924876;28;113582;-71
2022/05/05 09:19:50;;;;;;;14.00;8.45;;;;;;;22.98;37.73;102117.66;4917050;28;114143;-72
2022/05/05 09:22:20;;;;;;;16.58;8.32;;;;;;;23.00;37.67;102125.59;4913828;28;123953;-72
2022/05/05 09:24:51;;;;;;;17.23;8.80;;;;;;;23.02;37.90;102119.13;4920296;28;124149;-73
2022/05/05 09:27:31;;;;;;;15.65;8.98;;;;;;;23.10;37.79;102127.50;4916085;28;114515;-73
2022/05/05 09:30:12;;;;;;;14.05;8.32;;;;;;;23.11;37.44;102123.84;4941123;28;113329;-73
2022/05/05 09:32:45;;;;;;;16.02;8.95;;;;;;;23.07;37.61;102130.44;4893611;28;123919;-72
2022/05/05 09:35:15;;;;;;;18.13;9.65;;;;;;;23.02;37.39;102124.53;4931116;28;122893;-72
2022/05/05 09:37:44;;;;;;;17.10;9.68;;;;;;;22.97;37.24;102132.13;4931482;28;113650;-73
2022/05/05 09:40:19;;;;;;;17.33;9.43;;;;;;;22.90;37.19;102130.88;4930215;28;113999;-73
2022/05/05 09:42:49;;;;;;;18.52;9.32;;;;;;;22.78;37.20;102127.28;4908481;28;123465;-72
2022/05/05 09:45:18;;;;;;;18.88;9.25;;;;;;;22.69;37.20;102128.81;4929481;28;124143;-73
2022/05/05 09:47:58;;;;;;;16.00;9.50;;;;;;;22.61;37.34;102142.06;4946616;28;115434;-72
2022/05/05 09:50:27;;;;;;;20.00;10.75;;;;;;;22.49;37.34;102138.44;4912988;28;114129;-74
2022/05/05 09:58:39;;;;;;;20.35;11.48;;;;;;;22.26;37.89;102140.16;4931603;28;115081;-74
2022/05/05 10:01:13;;;;;;;16.63;9.20;;;;;;;22.23;37.76;102143.06;4927980;28;113362;-72
2022/05/05 10:04:05;;;;;;;19.17;10.52;;;;;;;22.20;37.91;102137.88;4929860;28;123903;-73
2022/05/05 10:06:40;;;;;;;18.48;9.98;;;;;;;22.20;37.87;102140.56;4929975;28;123609;-74
2022/05/05 10:09:09;;;;;;;16.85;10.05;;;;;;;22.18;37.75;102145.22;4932880;28;113999;-74
2022/05/05 10:11:37;;;;;;;18.52;10.95;;;;;;;22.17;37.82;102146.22;4946172;28;113923;-73
2022/05/05 10:14:07;;;;;;;18.73;10.13;;;;;;;22.15;37.65;102145.44;4944856;28;124255;-74
2022/05/05 10:16:36;;;;;;;19.17;10.27;;;;;;;22.13;37.92;102150.09;4912840;28;124677;-74
2022/05/05 10:19:04;;;;;;;17.92;10.35;;;;;;;22.19;37.90;102157.75;4932392;28;114309;-74
2022/05/05 10:21:49;;;;;;;16.98;10.65;;;;;;;22.28;37.56;102140.91;4927490;28;114092;-73
2022/05/05 10:24:34;;;;;;;19.10;10.63;;;;;;;22.35;37.51;102136.75;4938038;28;123929;-73
2022/05/05 10:27:03;;;;;;;19.48;10.55;;;;;;;22.42;37.45;102142.59;4927739;28;123224;-73
2022/05/05 10:29:39;;;;;;;19.45;10.27;;;;;;;22.49;37.42;102141.16;4910030;28;113612;-73
2022/05/05 10:32:07;;;;;;;16.50;10.10;;;;;;;22.60;37.65;102134.91;4930482;28;114702;-73
2022/05/05 10:34:37;;;;;;;19.92;10.50;;;;;;;22.73;37.79;102135.75;4911182;28;124426;-73
2022/05/05 10:37:14;;;;;;;14.75;9.07;;;;;;;22.87;37.60;102131.13;4916224;28;123729;-73
2022/05/05 10:39:50;;;;;;;17.02;9.95;;;;;;;23.01;36.95;102132.75;4921421;28;115352;-73
2022/05/05 10:42:32;;;;;;;20.45;10.57;;;;;;;23.11;36.81;102128.38;4928852;28;113847;-73
2022/05/05 10:45:07;;;;;;;16.73;9.98;;;;;;;23.21;36.38;102139.34;4914484;28;124267;-73
2022/05/05 10:47:54;;;;;;;17.15;10.48;;;;;;;23.35;37.05;102135.53;4925105;28;123837;-73
2022/05/05 10:50:39;;;;;;;16.08;9.23;;;;;;;23.51;37.05;102131.50;4926426;28;114073;-74
2022/05/05 10:53:08;;;;;;;17.35;10.48;;;;;;;23.68;37.01;102129.31;4898332;28;114235;-73
2022/05/05 10:55:45;;;;;;;17.77;10.57;;;;;;;23.85;36.44;102128.81;4931174;28;124003;-74
2022/05/05 10:59:02;;;;;;;18.05;10.32;;;;;;;24.02;35.77;102129.31;4933192;28;121748;-73
2022/05/05 11:01:51;;;;;;;20.15;10.23;;;;;;;24.10;35.88;102133.09;4913255;28;114192;-73
2022/05/05 11:04:20;;;;;;;18.85;10.50;;;;;;;24.13;35.64;102128.41;4915625;28;113770;-74
2022/05/05 11:06:50;;;;;;;17.63;10.02;;;;;;;24.13;35.29;102121.16;4915626;28;124086;-73
2022/05/05 11:09:29;;;;;;;16.23;9.80;;;;;;;24.09;35.40;102136.78;4892627;28;123912;-72
2022/05/05 11:12:20;;;;;;;17.08;10.52;;;;;;;24.09;35.71;102133.19;4942789;28;113759;-74
2022/05/05 11:23:49;;;;;;;19.90;10.77;;;;;;;23.90;35.53;102137.44;4915294;28;114179;-73
2022/05/05 11:26:20;;;;;;;15.40;10.00;;;;;;;23.80;35.36;102131.03;4925227;28;114370;-73
2022/05/05 11:28:48;;;;;;;16.75;10.10;;;;;;;23.72;35.53;102138.88;4907201;28;123637;-73
2022/05/05 11:31:27;;;;;;;22.17;10.25;;;;;;;23.64;35.53;102135.91;4905528;28;122722;-73
2022/05/05 11:34:03;;;;;;;16.48;9.55;;;;;;;23.59;35.54;102138.16;4926319;28;115315;-74
2022/05/05 11:36:37;;;;;;;17.73;10.05;;;;;;;23.55;35.97;102131.28;4931331;28;115563;-73
2022/05/05 11:39:06;;;;;;;17.67;10.60;;;;;;;23.60;36.06;102139.84;4929613;28;123883;-73
2022/05/05 11:41:35;;;;;;;17.27;10.02;;;;;;;23.62;36.46;102132.47;4930707;28;124152;-73
2022/05/05 11:44:17;;;;;;;16.80;9.88;;;;;;;23.64;36.35;102136.81;4931218;28;114181;-72
2022/05/05 11:46:44;;;;;;;16.25;10.13;;;;;;;23.65;36.37;102143.06;4931008;28;114665;-73
2022/05/05 11:49:12;;;;;;;18.30;10.52;;;;;;;23.62;36.08;102138.78;4928928;28;123920;-73
2022/05/05 11:51:39;;;;;;;21.15;10.10;;;;;;;23.58;35.85;102141.81;4937951;28;123237;-73
2022/05/05 11:54:10;;;;;;;20.02;10.07;;;;;;;23.50;35.96;102139.72;4934196;28;97451;-73
2022/05/05 11:56:44;;;;;;;16.67;10.15;;;;;;;23.46;36.12;102139.13;4919380;28;113559;-74